Aviation Digital Data Service (ADDS)

Output produced by METARs form (2349 UTC 03 December 2016)
found at http://aviationweather.gov/adds/metars/
 
KGON 032333Z 0400/0424 31011G17KT P6SM SCT050 
     FM040500 32010KT P6SM FEW050 
     FM041300 34011KT P6SM FEW050 
     FM042200 35007KT P6SM FEW050 SCT250